createdAt,value
2016-08-25T03:01:12.765Z,1020.02
2016-08-25T03:01:38.396Z,1020.05
2016-08-25T03:02:03.965Z,1020.05
2016-08-25T03:02:29.535Z,1020.02
2016-08-25T03:02:55.111Z,1020.04
2016-08-25T03:03:20.668Z,1020.02
2016-08-25T03:03:46.227Z,1020.02
2016-08-25T03:04:11.817Z,1020.04
2016-08-25T03:04:37.370Z,1020.02
2016-08-25T03:05:02.937Z,1020.03
2016-08-25T03:05:28.567Z,1020.03
2016-08-25T03:05:54.145Z,1020.01
2016-08-25T03:06:19.708Z,1020.03
2016-08-25T03:06:45.292Z,1020.04
2016-08-25T03:07:10.863Z,1020.06
2016-08-25T03:07:36.424Z,1020.04
2016-08-25T03:08:02.001Z,1020.09
2016-08-25T03:08:27.580Z,1020.05
2016-08-25T03:08:53.149Z,1020.07
2016-08-25T03:09:18.747Z,1020.03
2016-08-25T03:09:44.339Z,1020.03
2016-08-25T03:10:09.938Z,1020.05
2016-08-25T03:10:35.562Z,1020.05
2016-08-25T03:11:01.128Z,1020.07
2016-08-25T03:11:26.698Z,1020.05
2016-08-25T03:11:52.249Z,1020.07
2016-08-25T03:12:17.818Z,1020.06
2016-08-25T03:12:43.369Z,1020.06
2016-08-25T03:13:09.013Z,1020.1
2016-08-25T03:13:34.739Z,1020.04
2016-08-25T03:14:00.302Z,1020.05
2016-08-25T03:14:25.861Z,1020.09
2016-08-25T03:14:51.419Z,1020.11
2016-08-25T03:15:16.950Z,1020.1
2016-08-25T03:15:42.499Z,1020.09
2016-08-25T03:16:08.032Z,1020.07
2016-08-25T03:16:33.581Z,1020.07
2016-08-25T03:16:59.136Z,1020.06
2016-08-25T03:17:24.672Z,1020.05
2016-08-25T03:17:50.219Z,1020.05
2016-08-25T03:18:15.753Z,1020.09
2016-08-25T03:18:41.301Z,1020.09
2016-08-25T03:19:06.848Z,1020.1
2016-08-25T03:19:32.388Z,1020.11
2016-08-25T03:19:57.942Z,1020.1
2016-08-25T03:20:23.610Z,1020.11
2016-08-25T03:21:31.936Z,1020.11
2016-08-25T03:21:57.478Z,1020.08
2016-08-25T03:22:23.036Z,1020.07
2016-08-25T03:22:48.678Z,1020.06
2016-08-25T03:23:14.267Z,1020.08
2016-08-25T03:23:39.834Z,1020.07
2016-08-25T03:24:05.387Z,1020.1
2016-08-25T03:24:30.947Z,1020.07
2016-08-25T03:24:56.515Z,1020.1
2016-08-25T03:25:22.084Z,1020.09
2016-08-25T03:25:47.654Z,1020.09
2016-08-25T03:26:13.217Z,1020.1
2016-08-25T03:26:38.778Z,1020.11
2016-08-25T03:27:04.357Z,1020.11
2016-08-25T03:27:29.910Z,1020.08
2016-08-25T03:27:55.487Z,1020.07
2016-08-25T03:28:21.055Z,1020.03
2016-08-25T03:28:46.613Z,1020.05
2016-08-25T03:29:12.175Z,1020.06
2016-08-25T03:29:37.741Z,1020.07
2016-08-25T03:30:03.358Z,1020.05
2016-08-25T03:30:29.027Z,1020.03
2016-08-25T03:30:54.594Z,1020.02
2016-08-25T03:31:20.205Z,1020.05
2016-08-25T03:31:45.773Z,1020.03
2016-08-25T03:32:11.399Z,1019.99
2016-08-25T03:32:36.973Z,1020.02
2016-08-25T03:33:02.532Z,1020.02
2016-08-25T03:33:28.077Z,1020.01
2016-08-25T03:33:53.636Z,1020.01
2016-08-25T03:34:19.276Z,1019.98
2016-08-25T03:34:44.851Z,1019.99
2016-08-25T03:35:10.407Z,1019.96
2016-08-25T03:35:36.057Z,1020.01
2016-08-25T03:36:01.625Z,1019.96
2016-08-25T03:36:27.184Z,1019.97
2016-08-25T03:36:52.738Z,1019.99
2016-08-25T03:37:18.319Z,1019.97
2016-08-25T03:37:43.881Z,1019.97
2016-08-25T03:38:09.455Z,1019.98
2016-08-25T03:38:35.029Z,1019.97
2016-08-25T03:39:00.624Z,1019.96
2016-08-25T03:39:26.199Z,1019.92
2016-08-25T03:39:51.766Z,1019.94
2016-08-25T03:40:17.399Z,1019.96
2016-08-25T03:40:42.954Z,1019.95
2016-08-25T03:41:08.535Z,1019.96
2016-08-25T03:41:34.090Z,1019.96
2016-08-25T03:41:59.646Z,1019.92
2016-08-25T03:42:25.211Z,1019.94
2016-08-25T03:42:50.759Z,1019.93
2016-08-25T03:43:16.329Z,1019.9
2016-08-25T03:43:41.893Z,1019.9
2016-08-25T03:44:07.475Z,1019.88
2016-08-25T03:44:33.046Z,1019.9
2016-08-25T03:44:58.625Z,1019.9
2016-08-25T03:45:24.265Z,1019.87
2016-08-25T03:45:49.934Z,1019.88
2016-08-25T03:46:15.516Z,1019.87
2016-08-25T03:46:41.087Z,1019.86
2016-08-25T03:47:07.590Z,1019.86
2016-08-25T03:47:33.163Z,1019.85
2016-08-25T03:47:58.718Z,1019.89
2016-08-25T03:48:24.282Z,1019.89
2016-08-25T03:48:49.842Z,1019.85
2016-08-25T03:49:15.481Z,1019.85
2016-08-25T03:49:41.025Z,1019.83
2016-08-25T03:50:06.635Z,1019.85
2016-08-25T03:50:32.264Z,1019.84
2016-08-25T03:50:57.838Z,1019.84
2016-08-25T03:51:23.481Z,1019.85
2016-08-25T03:51:49.044Z,1019.86
2016-08-25T03:52:14.617Z,1019.84
2016-08-25T03:52:40.159Z,1019.85
2016-08-25T03:53:05.721Z,1019.88
2016-08-25T03:53:31.316Z,1019.83
2016-08-25T03:53:56.877Z,1019.82
2016-08-25T03:54:22.436Z,1019.86
2016-08-25T03:54:47.996Z,1019.81
2016-08-25T03:55:13.588Z,1019.81
2016-08-25T03:55:39.141Z,1019.83
2016-08-25T03:56:04.698Z,1019.86
2016-08-25T03:56:30.263Z,1019.82
2016-08-25T03:56:55.831Z,1019.85
2016-08-25T03:57:21.490Z,1019.83
2016-08-25T03:57:47.066Z,1019.8
2016-08-25T03:58:12.646Z,1019.81
2016-08-25T03:58:38.313Z,1019.79
2016-08-25T03:59:03.947Z,1019.81
2016-08-25T03:59:29.617Z,1019.79
2016-08-25T03:59:55.171Z,1019.83
2016-08-25T04:00:20.737Z,1019.78
2016-08-25T04:00:46.317Z,1019.78
2016-08-25T04:01:11.891Z,1019.78
2016-08-25T04:01:37.621Z,1019.79
2016-08-25T04:02:03.276Z,1019.8
2016-08-25T04:02:28.940Z,1019.8
2016-08-25T04:02:54.515Z,1019.76
2016-08-25T04:03:20.092Z,1019.77
2016-08-25T04:03:45.662Z,1019.77
2016-08-25T04:04:11.235Z,1019.79
2016-08-25T04:04:36.799Z,1019.76
2016-08-25T04:05:02.348Z,1019.73
2016-08-25T04:05:27.893Z,1019.78
2016-08-25T04:05:53.537Z,1019.77
2016-08-25T04:06:19.097Z,1019.73
2016-08-25T04:06:44.660Z,1019.76
2016-08-25T04:07:10.217Z,1019.75
2016-08-25T04:07:35.782Z,1019.77
2016-08-25T04:08:01.358Z,1019.76
2016-08-25T04:08:26.932Z,1019.79
2016-08-25T04:08:52.490Z,1019.77
2016-08-25T04:09:18.043Z,1019.74
2016-08-25T04:09:43.706Z,1019.76
2016-08-25T04:10:09.263Z,1019.78
2016-08-25T04:10:34.831Z,1019.76
2016-08-25T04:11:00.411Z,1019.75
2016-08-25T04:11:26.012Z,1019.8
2016-08-25T04:11:51.594Z,1019.77
2016-08-25T04:12:17.174Z,1019.75
2016-08-25T04:12:42.749Z,1019.75
2016-08-25T04:13:08.305Z,1019.75
2016-08-25T04:13:33.886Z,1019.76
2016-08-25T04:13:59.465Z,1019.78
2016-08-25T04:14:25.025Z,1019.78
2016-08-25T04:14:50.697Z,1019.77
2016-08-25T04:15:16.280Z,1019.77
2016-08-25T04:15:41.847Z,1019.75
2016-08-25T04:16:55.299Z,1019.72
2016-08-25T04:19:55.804Z,1019.72
2016-08-25T04:20:21.388Z,1019.71
2016-08-25T04:20:46.945Z,1019.74
2016-08-25T04:21:12.545Z,1019.69
2016-08-25T04:21:38.157Z,1019.72
2016-08-25T04:22:03.728Z,1019.7
2016-08-25T04:22:29.355Z,1019.71
2016-08-25T04:22:54.913Z,1019.68
2016-08-25T04:23:20.489Z,1019.72
2016-08-25T04:23:46.045Z,1019.69
2016-08-25T04:24:11.602Z,1019.7
2016-08-25T04:24:37.230Z,1019.69
2016-08-25T04:25:02.804Z,1019.69
2016-08-25T04:25:28.454Z,1019.67
2016-08-25T04:25:54.036Z,1019.66
2016-08-25T04:26:19.601Z,1019.66
2016-08-25T04:26:45.170Z,1019.68
2016-08-25T04:27:10.859Z,1019.66
2016-08-25T04:27:36.412Z,1019.65
2016-08-25T04:28:01.977Z,1019.68
2016-08-25T04:28:27.527Z,1019.62
2016-08-25T04:28:53.093Z,1019.65
2016-08-25T04:29:18.674Z,1019.7
2016-08-25T04:29:44.233Z,1019.68
2016-08-25T04:30:09.815Z,1019.65
2016-08-25T04:30:35.374Z,1019.67
2016-08-25T04:31:01.049Z,1019.65
2016-08-25T04:31:26.626Z,1019.74
2016-08-25T04:31:52.182Z,1019.65
2016-08-25T04:32:17.746Z,1019.68
2016-08-25T04:32:43.400Z,1019.69
2016-08-25T04:33:08.967Z,1019.7
2016-08-25T04:33:34.535Z,1019.67
2016-08-25T04:34:00.102Z,1019.69
2016-08-25T04:34:25.694Z,1019.7
2016-08-25T04:34:51.282Z,1019.68
2016-08-25T04:35:16.841Z,1019.66
2016-08-25T04:35:42.468Z,1019.68
2016-08-25T04:36:08.028Z,1019.66
2016-08-25T04:36:33.581Z,1019.68
2016-08-25T04:36:59.179Z,1019.69
2016-08-25T04:37:24.743Z,1019.66
2016-08-25T04:37:50.343Z,1019.65
2016-08-25T04:38:15.940Z,1019.71
2016-08-25T04:38:41.674Z,1019.66
2016-08-25T04:39:07.229Z,1019.72
2016-08-25T04:39:32.788Z,1019.72
2016-08-25T04:39:58.344Z,1019.71
2016-08-25T04:40:56.535Z,1019.71
2016-08-25T04:41:22.147Z,1019.73
2016-08-25T04:41:47.703Z,1019.76
2016-08-25T04:42:13.298Z,1019.76
2016-08-25T04:42:38.922Z,1019.75
2016-08-25T04:43:04.504Z,1019.77
2016-08-25T04:43:30.105Z,1019.77
2016-08-25T04:43:55.678Z,1019.8
2016-08-25T04:44:21.235Z,1019.77
2016-08-25T04:44:46.799Z,1019.77
2016-08-25T04:45:12.353Z,1019.79
2016-08-25T04:45:37.936Z,1019.79
2016-08-25T04:46:03.514Z,1019.77
2016-08-25T04:46:29.081Z,1019.74
2016-08-25T04:46:54.683Z,1019.73
2016-08-25T04:47:20.295Z,1019.79
2016-08-25T04:47:45.837Z,1019.76
2016-08-25T04:48:11.390Z,1019.77
2016-08-25T04:48:36.972Z,1019.78
2016-08-25T04:49:02.531Z,1019.73
2016-08-25T04:49:28.092Z,1019.79
2016-08-25T04:49:53.657Z,1019.76
2016-08-25T04:50:19.224Z,1019.77
2016-08-25T04:50:44.771Z,1019.79
2016-08-25T04:51:10.434Z,1019.76
2016-08-25T04:51:35.978Z,1019.77
2016-08-25T04:52:01.621Z,1019.79
2016-08-25T04:52:27.180Z,1019.8
2016-08-25T04:52:52.854Z,1019.76
2016-08-25T04:53:18.421Z,1019.78
2016-08-25T04:53:43.975Z,1019.81
2016-08-25T04:54:52.365Z,1019.78
2016-08-25T04:55:18.128Z,1019.79
2016-08-25T04:55:43.767Z,1019.82
2016-08-25T04:56:09.447Z,1019.77
2016-08-25T04:56:35.004Z,1019.78
2016-08-25T04:57:00.611Z,1019.81
2016-08-25T04:57:26.166Z,1019.81
2016-08-25T04:57:51.750Z,1019.81
2016-08-25T04:58:17.315Z,1019.76
2016-08-25T04:58:43.005Z,1019.75
2016-08-25T04:59:08.578Z,1019.79
2016-08-25T04:59:34.134Z,1019.79
2016-08-25T04:59:59.716Z,1019.78
2016-08-25T05:00:25.356Z,1019.81
2016-08-25T05:00:50.914Z,1019.79
2016-08-25T05:01:16.455Z,1019.79
2016-08-25T05:01:42.016Z,1019.81
2016-08-25T05:02:07.749Z,1019.78
2016-08-25T05:02:33.357Z,1019.76
2016-08-25T05:03:46.908Z,1019.76
2016-08-25T05:04:12.625Z,1019.76
2016-08-25T05:04:38.222Z,1019.73
2016-08-25T05:05:03.864Z,1019.71
2016-08-25T05:05:29.416Z,1019.71
2016-08-25T05:05:55.026Z,1019.75
2016-08-25T05:06:20.599Z,1019.78
2016-08-25T05:06:46.172Z,1019.77
2016-08-25T05:07:11.776Z,1019.75
2016-08-25T05:07:37.345Z,1019.77
2016-08-25T05:08:02.902Z,1019.76
2016-08-25T05:08:28.493Z,1019.79
2016-08-25T05:08:54.055Z,1019.76
2016-08-25T05:09:19.630Z,1019.77
2016-08-25T05:09:45.212Z,1019.79
2016-08-25T05:10:10.776Z,1019.72
2016-08-25T05:10:36.395Z,1019.76
2016-08-25T05:11:02.011Z,1019.77
2016-08-25T05:11:27.563Z,1019.79
2016-08-25T05:11:53.105Z,1019.73
2016-08-25T05:12:18.695Z,1019.77
2016-08-25T05:12:44.258Z,1019.81
2016-08-25T05:13:09.832Z,1019.79
2016-08-25T05:13:35.373Z,1019.74
2016-08-25T05:14:00.939Z,1019.77
2016-08-25T05:14:26.578Z,1019.72
2016-08-25T05:14:52.156Z,1019.77
2016-08-25T05:15:17.710Z,1019.8
2016-08-25T05:15:43.265Z,1019.76
2016-08-25T05:16:08.846Z,1019.76
2016-08-25T05:16:34.390Z,1019.78
2016-08-25T05:16:59.971Z,1019.76
2016-08-25T05:17:25.591Z,1019.77
2016-08-25T05:17:51.157Z,1019.73
2016-08-25T05:18:16.709Z,1019.73
2016-08-25T05:18:42.266Z,1019.75
2016-08-25T05:19:07.816Z,1019.76
2016-08-25T05:19:33.377Z,1019.72
2016-08-25T05:19:58.956Z,1019.75
2016-08-25T05:20:24.507Z,1019.73
2016-08-25T05:20:50.102Z,1019.71
2016-08-25T05:21:15.691Z,1019.72
2016-08-25T05:21:41.264Z,1019.72
2016-08-25T05:22:06.854Z,1019.73
2016-08-25T05:22:32.410Z,1019.75
2016-08-25T05:22:57.968Z,1019.76
2016-08-25T05:23:23.509Z,1019.72
2016-08-25T05:23:49.105Z,1019.72
2016-08-25T05:24:14.738Z,1019.71
2016-08-25T05:24:40.290Z,1019.68
2016-08-25T05:25:05.874Z,1019.71
2016-08-25T05:25:31.524Z,1019.7
2016-08-25T05:25:57.087Z,1019.68
2016-08-25T05:26:22.688Z,1019.71
2016-08-25T05:26:48.254Z,1019.72
2016-08-25T05:27:13.896Z,1019.7
2016-08-25T05:28:32.492Z,1019.66
2016-08-25T05:29:51.131Z,1019.67
2016-08-25T05:30:16.707Z,1019.63
2016-08-25T05:30:42.288Z,1019.69
2016-08-25T05:31:07.861Z,1019.65
2016-08-25T05:31:33.446Z,1019.64
2016-08-25T05:31:59.025Z,1019.62
2016-08-25T05:32:24.594Z,1019.64
2016-08-25T05:32:50.286Z,1019.67
2016-08-25T05:33:15.877Z,1019.63
2016-08-25T05:33:41.548Z,1019.61
2016-08-25T05:34:07.124Z,1019.61
2016-08-25T05:34:32.671Z,1019.58
2016-08-25T05:34:58.276Z,1019.6
2016-08-25T05:35:23.881Z,1019.61
2016-08-25T05:35:49.464Z,1019.57
2016-08-25T05:36:15.025Z,1019.58
2016-08-25T05:36:40.603Z,1019.58
2016-08-25T05:37:06.304Z,1019.6
2016-08-25T05:37:31.878Z,1019.58
2016-08-25T05:37:57.424Z,1019.58
2016-08-25T05:38:22.990Z,1019.58
2016-08-25T05:38:48.556Z,1019.56
2016-08-25T05:39:14.106Z,1019.56
2016-08-25T05:39:39.677Z,1019.54
2016-08-25T05:40:05.234Z,1019.58
2016-08-25T05:40:30.854Z,1019.57
2016-08-25T05:40:56.413Z,1019.53
2016-08-25T05:41:21.978Z,1019.54
2016-08-25T05:41:47.552Z,1019.51
2016-08-25T05:42:13.083Z,1019.51
2016-08-25T05:42:38.654Z,1019.49
2016-08-25T05:43:04.945Z,1019.48
2016-08-25T05:43:30.523Z,1019.5
2016-08-25T05:43:56.228Z,1019.49
2016-08-25T05:44:21.800Z,1019.45
2016-08-25T05:44:47.371Z,1019.47
2016-08-25T05:45:12.923Z,1019.47
2016-08-25T05:45:38.459Z,1019.44
2016-08-25T05:46:04.045Z,1019.4
2016-08-25T05:46:29.603Z,1019.43
2016-08-25T05:46:55.192Z,1019.45
2016-08-25T05:47:20.749Z,1019.41
2016-08-25T05:47:46.316Z,1019.39
2016-08-25T05:48:59.716Z,1019.38
2016-08-25T05:51:07.065Z,1019.42
2016-08-25T05:51:32.753Z,1019.43
2016-08-25T05:51:58.370Z,1019.43
2016-08-25T05:52:23.955Z,1019.43
2016-08-25T05:52:49.513Z,1019.42
2016-08-25T05:53:15.142Z,1019.43
2016-08-25T05:53:47.562Z,1019.45
2016-08-25T05:54:13.161Z,1019.41
2016-08-25T05:54:39.369Z,1019.4
2016-08-25T05:55:04.936Z,1019.43
2016-08-25T05:55:31.145Z,1019.38
2016-08-25T05:55:56.706Z,1019.4
2016-08-25T05:56:22.305Z,1019.42
2016-08-25T05:56:48.543Z,1019.4
2016-08-25T05:57:46.667Z,1019.47
2016-08-25T05:58:12.229Z,1019.4
2016-08-25T05:58:37.783Z,1019.44
2016-08-25T05:59:03.365Z,1019.41
2016-08-25T05:59:28.951Z,1019.42
2016-08-25T05:59:54.578Z,1019.43
2016-08-25T06:00:20.177Z,1019.41
2016-08-25T06:00:45.713Z,1019.43
2016-08-25T06:01:48.901Z,1019.41
2016-08-25T06:02:14.469Z,1019.39
2016-08-25T06:02:40.064Z,1019.42
2016-08-25T06:03:05.632Z,1019.4
2016-08-25T06:03:31.180Z,1019.44
2016-08-25T06:03:56.746Z,1019.42
2016-08-25T06:04:22.308Z,1019.41
2016-08-25T06:04:47.875Z,1019.41
2016-08-25T06:05:13.656Z,1019.42
2016-08-25T06:05:39.255Z,1019.41
2016-08-25T06:06:04.803Z,1019.41
2016-08-25T06:06:30.470Z,1019.4
2016-08-25T06:06:56.051Z,1019.42
2016-08-25T06:07:21.599Z,1019.4
2016-08-25T06:07:47.172Z,1019.4
2016-08-25T06:08:59.466Z,1019.37
2016-08-25T06:09:25.043Z,1019.42
2016-08-25T06:09:50.610Z,1019.41
2016-08-25T06:10:16.174Z,1019.43
2016-08-25T06:10:42.103Z,1019.43
2016-08-25T06:11:07.669Z,1019.44
2016-08-25T06:11:33.222Z,1019.4
2016-08-25T06:11:59.485Z,1019.45
2016-08-25T06:12:25.053Z,1019.44
2016-08-25T06:12:51.295Z,1019.41
2016-08-25T06:13:16.854Z,1019.43
2016-08-25T06:13:42.542Z,1019.43
2016-08-25T06:14:08.656Z,1019.41
2016-08-25T06:14:34.241Z,1019.43
2016-08-25T06:15:00.534Z,1019.44
2016-08-25T06:15:26.170Z,1019.41
2016-08-25T06:15:52.225Z,1019.44
2016-08-25T06:16:17.797Z,1019.44
2016-08-25T06:16:43.344Z,1019.44
2016-08-25T06:17:09.575Z,1019.41
2016-08-25T06:17:35.139Z,1019.41
2016-08-25T06:18:01.388Z,1019.42
2016-08-25T06:18:26.956Z,1019.44
2016-08-25T06:18:52.506Z,1019.43
2016-08-25T06:19:18.734Z,1019.44
2016-08-25T06:19:44.351Z,1019.46
2016-08-25T06:20:52.713Z,1019.42
2016-08-25T06:21:18.271Z,1019.43
2016-08-25T06:21:43.882Z,1019.41
2016-08-25T06:22:09.437Z,1019.44
2016-08-25T06:22:34.998Z,1019.46
2016-08-25T06:23:00.580Z,1019.46
2016-08-25T06:23:26.200Z,1019.47
2016-08-25T06:23:51.820Z,1019.49
2016-08-25T06:24:17.399Z,1019.51
2016-08-25T06:24:42.945Z,1019.49
2016-08-25T06:25:08.515Z,1019.52
2016-08-25T06:25:34.079Z,1019.52
2016-08-25T06:25:59.647Z,1019.5
2016-08-25T06:26:25.228Z,1019.56
2016-08-25T06:26:50.932Z,1019.52
2016-08-25T06:27:16.505Z,1019.52
2016-08-25T06:27:42.083Z,1019.52
2016-08-25T06:28:07.636Z,1019.54
2016-08-25T06:28:33.193Z,1019.51
2016-08-25T06:28:58.745Z,1019.54
2016-08-25T06:29:24.318Z,1019.53
2016-08-25T06:29:49.880Z,1019.54
2016-08-25T06:30:15.422Z,1019.51
2016-08-25T06:30:40.993Z,1019.52
2016-08-25T06:31:06.656Z,1019.52
2016-08-25T06:31:32.237Z,1019.54
2016-08-25T06:31:57.786Z,1019.55
2016-08-25T06:32:23.337Z,1019.58
2016-08-25T06:32:48.885Z,1019.52
2016-08-25T06:33:14.435Z,1019.54
2016-08-25T06:33:40.014Z,1019.56
2016-08-25T06:34:05.580Z,1019.6
2016-08-25T06:34:31.161Z,1019.56
2016-08-25T06:34:56.753Z,1019.57
2016-08-25T06:35:22.304Z,1019.6
2016-08-25T06:35:47.851Z,1019.58
2016-08-25T06:36:13.397Z,1019.61
2016-08-25T06:36:38.919Z,1019.6
2016-08-25T06:37:04.447Z,1019.62
2016-08-25T06:37:30.050Z,1019.61
2016-08-25T06:37:55.601Z,1019.62
2016-08-25T06:38:21.138Z,1019.63
2016-08-25T06:38:46.677Z,1019.62
2016-08-25T06:39:12.273Z,1019.61
2016-08-25T06:39:37.809Z,1019.62
2016-08-25T06:40:03.381Z,1019.64
2016-08-25T06:40:28.910Z,1019.65
2016-08-25T06:40:54.475Z,1019.65
2016-08-25T06:41:20.030Z,1019.63
2016-08-25T06:41:45.592Z,1019.64
2016-08-25T06:42:11.255Z,1019.64
2016-08-25T06:42:36.802Z,1019.62
2016-08-25T06:43:02.452Z,1019.63
2016-08-25T06:43:28.043Z,1019.66
2016-08-25T06:43:53.566Z,1019.67
2016-08-25T06:44:19.133Z,1019.66
2016-08-25T06:44:44.684Z,1019.65
2016-08-25T06:45:10.279Z,1019.61
2016-08-25T06:45:35.863Z,1019.66
2016-08-25T06:46:01.411Z,1019.67
2016-08-25T06:46:26.974Z,1019.67
2016-08-25T06:46:52.639Z,1019.69
2016-08-25T06:47:18.232Z,1019.68
2016-08-25T06:47:43.793Z,1019.67
2016-08-25T06:48:09.377Z,1019.71
2016-08-25T06:48:35.021Z,1019.7
2016-08-25T06:49:00.575Z,1019.69
2016-08-25T06:49:26.184Z,1019.68
2016-08-25T06:49:51.747Z,1019.68
2016-08-25T06:50:17.309Z,1019.68
2016-08-25T06:50:42.965Z,1019.64
2016-08-25T06:51:08.439Z,1019.71
2016-08-25T06:51:34.006Z,1019.67
2016-08-25T06:51:59.628Z,1019.69
2016-08-25T06:52:25.196Z,1019.71
2016-08-25T06:52:50.772Z,1019.7
2016-08-25T06:53:16.333Z,1019.65
2016-08-25T06:53:41.879Z,1019.71
2016-08-25T06:54:07.435Z,1019.71
2016-08-25T06:54:32.973Z,1019.67
2016-08-25T06:54:58.517Z,1019.69
2016-08-25T06:55:24.068Z,1019.66
2016-08-25T06:55:49.651Z,1019.65
2016-08-25T06:56:15.350Z,1019.65
2016-08-25T06:56:40.911Z,1019.7
2016-08-25T06:57:06.592Z,1019.65
2016-08-25T06:57:32.166Z,1019.67
2016-08-25T06:57:57.729Z,1019.66
2016-08-25T06:58:23.370Z,1019.64
2016-08-25T06:58:48.938Z,1019.68
2016-08-25T06:59:14.489Z,1019.66
2016-08-25T06:59:40.117Z,1019.65
2016-08-25T07:00:05.700Z,1019.64
2016-08-25T07:00:31.258Z,1019.69
2016-08-25T07:00:56.811Z,1019.68
2016-08-25T07:01:22.393Z,1019.69
2016-08-25T07:01:47.947Z,1019.67
2016-08-25T07:02:13.493Z,1019.69
2016-08-25T07:02:39.129Z,1019.66
2016-08-25T07:03:04.682Z,1019.69
2016-08-25T07:03:30.262Z,1019.66
2016-08-25T07:03:55.817Z,1019.69
2016-08-25T07:04:21.392Z,1019.72
2016-08-25T07:04:46.959Z,1019.67
2016-08-25T07:06:00.353Z,1019.69
2016-08-25T07:06:25.934Z,1019.69
2016-08-25T07:06:51.476Z,1019.68
2016-08-25T07:07:17.245Z,1019.67
2016-08-25T07:07:42.930Z,1019.68
2016-08-25T07:08:08.534Z,1019.67
2016-08-25T07:08:34.094Z,1019.72
2016-08-25T07:08:59.745Z,1019.69
2016-08-25T07:09:25.299Z,1019.66
2016-08-25T07:09:50.865Z,1019.66
2016-08-25T07:10:16.567Z,1019.63
2016-08-25T07:10:42.147Z,1019.71
2016-08-25T07:11:07.710Z,1019.67
2016-08-25T07:11:33.298Z,1019.63
2016-08-25T07:11:58.869Z,1019.65
2016-08-25T07:12:24.430Z,1019.66
2016-08-25T07:12:49.982Z,1019.63
2016-08-25T07:14:03.587Z,1019.71
2016-08-25T07:14:29.158Z,1019.67
2016-08-25T07:14:54.707Z,1019.69
2016-08-25T07:15:20.299Z,1019.71
2016-08-25T07:15:45.888Z,1019.69
2016-08-25T07:16:11.439Z,1019.73
2016-08-25T07:16:37.003Z,1019.69
2016-08-25T07:17:50.359Z,1019.7
2016-08-25T07:18:48.463Z,1019.74
2016-08-25T07:19:14.072Z,1019.78
2016-08-25T07:19:39.631Z,1019.79
2016-08-25T07:20:05.209Z,1019.75
2016-08-25T07:20:30.789Z,1019.81
2016-08-25T07:20:56.343Z,1019.72
2016-08-25T07:21:21.911Z,1019.78
2016-08-25T07:21:47.545Z,1019.75
2016-08-25T07:22:13.112Z,1019.8
2016-08-25T07:22:38.674Z,1019.76
2016-08-25T07:23:04.219Z,1019.8
2016-08-25T07:23:29.810Z,1019.8
2016-08-25T07:23:55.351Z,1019.82
2016-08-25T07:24:20.916Z,1019.81
2016-08-25T07:25:34.383Z,1019.81
2016-08-25T07:26:00.032Z,1019.82
2016-08-25T07:26:25.610Z,1019.83
2016-08-25T07:26:51.155Z,1019.83
2016-08-25T07:27:16.811Z,1019.76
2016-08-25T07:27:42.368Z,1019.76
2016-08-25T07:28:07.931Z,1019.81
2016-08-25T07:28:33.546Z,1019.77
2016-08-25T07:28:59.164Z,1019.77
2016-08-25T07:29:24.730Z,1019.83
2016-08-25T07:29:50.318Z,1019.8
2016-08-25T07:30:15.969Z,1019.79
2016-08-25T07:30:41.551Z,1019.78
2016-08-25T07:31:07.129Z,1019.79
2016-08-25T07:31:32.897Z,1019.79
2016-08-25T07:31:58.560Z,1019.79
2016-08-25T07:32:24.126Z,1019.76
2016-08-25T07:32:49.713Z,1019.8
2016-08-25T07:33:15.323Z,1019.76
2016-08-25T07:33:40.863Z,1019.75
2016-08-25T07:34:06.435Z,1019.74
2016-08-25T07:34:31.989Z,1019.73
2016-08-25T07:34:57.546Z,1019.73
2016-08-25T07:35:23.146Z,1019.71
2016-08-25T07:35:48.765Z,1019.7
2016-08-25T07:36:14.334Z,1019.73
2016-08-25T07:36:39.920Z,1019.71
2016-08-25T07:37:05.465Z,1019.72
2016-08-25T07:37:31.018Z,1019.7
2016-08-25T07:37:56.635Z,1019.68
2016-08-25T07:38:22.189Z,1019.71
2016-08-25T07:38:47.758Z,1019.72
2016-08-25T07:39:13.329Z,1019.69
2016-08-25T07:39:38.892Z,1019.67
2016-08-25T07:40:04.443Z,1019.69
2016-08-25T07:40:30.033Z,1019.69
2016-08-25T07:40:55.718Z,1019.67
2016-08-25T07:41:21.376Z,1019.68
2016-08-25T07:41:46.932Z,1019.72
2016-08-25T07:42:12.487Z,1019.71
2016-08-25T07:42:38.042Z,1019.71
2016-08-25T07:43:03.598Z,1019.74
2016-08-25T07:43:29.171Z,1019.69
2016-08-25T07:43:54.728Z,1019.72
2016-08-25T07:44:20.269Z,1019.76
2016-08-25T07:44:45.901Z,1019.71
2016-08-25T07:45:11.463Z,1019.74
2016-08-25T07:45:37.042Z,1019.72
2016-08-25T07:46:02.627Z,1019.73
2016-08-25T07:46:28.184Z,1019.74
2016-08-25T07:46:53.726Z,1019.71
2016-08-25T07:47:19.324Z,1019.73
2016-08-25T07:47:44.900Z,1019.77
2016-08-25T07:48:10.451Z,1019.69
2016-08-25T07:48:36.044Z,1019.7
2016-08-25T07:49:01.618Z,1019.73
2016-08-25T07:49:27.190Z,1019.71
2016-08-25T07:49:52.745Z,1019.72
2016-08-25T07:50:18.322Z,1019.72
2016-08-25T07:50:43.861Z,1019.7
2016-08-25T07:51:09.440Z,1019.72
2016-08-25T07:51:35.016Z,1019.71
2016-08-25T07:52:00.565Z,1019.67
2016-08-25T07:52:26.246Z,1019.69
2016-08-25T07:52:51.823Z,1019.7
2016-08-25T07:53:17.386Z,1019.73
2016-08-25T07:53:42.949Z,1019.71
2016-08-25T07:54:08.515Z,1019.71
2016-08-25T07:54:34.071Z,1019.69
2016-08-25T07:54:59.623Z,1019.72
2016-08-25T07:55:25.245Z,1019.67
2016-08-25T07:55:50.853Z,1019.72
2016-08-25T07:56:16.405Z,1019.69
2016-08-25T07:56:41.966Z,1019.71
2016-08-25T07:57:07.536Z,1019.67
2016-08-25T07:57:33.137Z,1019.7
2016-08-25T07:57:58.720Z,1019.73
2016-08-25T07:58:24.257Z,1019.7
2016-08-25T07:58:49.834Z,1019.7
2016-08-25T07:59:15.414Z,1019.68
2016-08-25T07:59:40.974Z,1019.69
2016-08-25T08:00:06.537Z,1019.73
2016-08-25T08:00:32.121Z,1019.7
2016-08-25T08:00:57.688Z,1019.67
2016-08-25T08:01:23.247Z,1019.66
2016-08-25T08:01:48.819Z,1019.64
2016-08-25T08:02:14.387Z,1019.69
2016-08-25T08:02:39.948Z,1019.67
2016-08-25T08:03:05.537Z,1019.66
2016-08-25T08:03:31.104Z,1019.62
2016-08-25T08:03:56.649Z,1019.63
2016-08-25T08:04:22.213Z,1019.63
2016-08-25T08:04:47.764Z,1019.66
2016-08-25T08:05:13.346Z,1019.64
2016-08-25T08:05:38.916Z,1019.63
2016-08-25T08:06:04.529Z,1019.64
2016-08-25T08:06:30.112Z,1019.6
2016-08-25T08:06:55.730Z,1019.62
2016-08-25T08:07:21.281Z,1019.65
2016-08-25T08:07:46.898Z,1019.63
2016-08-25T08:08:12.427Z,1019.66
2016-08-25T08:08:38.013Z,1019.61
2016-08-25T08:09:03.586Z,1019.67
2016-08-25T08:09:29.134Z,1019.62
2016-08-25T08:09:54.715Z,1019.6
2016-08-25T08:10:20.265Z,1019.62
2016-08-25T08:10:45.826Z,1019.66
2016-08-25T08:11:11.535Z,1019.6
2016-08-25T08:11:37.086Z,1019.6
2016-08-25T08:12:02.706Z,1019.59
2016-08-25T08:12:28.328Z,1019.62
2016-08-25T08:12:53.882Z,1019.63
2016-08-25T08:13:19.430Z,1019.6
2016-08-25T08:13:45.103Z,1019.6
2016-08-25T08:14:10.650Z,1019.61
2016-08-25T08:14:36.217Z,1019.58
2016-08-25T08:15:01.799Z,1019.59
2016-08-25T08:15:27.403Z,1019.58
2016-08-25T08:15:52.979Z,1019.58
2016-08-25T08:16:18.528Z,1019.6
2016-08-25T08:16:44.127Z,1019.57
2016-08-25T08:17:09.720Z,1019.6
2016-08-25T08:17:35.336Z,1019.56
2016-08-25T08:18:00.882Z,1019.55
2016-08-25T08:18:26.467Z,1019.54
2016-08-25T08:18:52.077Z,1019.52
2016-08-25T08:19:17.715Z,1019.52
2016-08-25T08:19:43.270Z,1019.52
2016-08-25T08:20:08.864Z,1019.54
2016-08-25T08:20:34.433Z,1019.51
2016-08-25T08:21:00.022Z,1019.47
2016-08-25T08:21:25.568Z,1019.48
2016-08-25T08:21:51.283Z,1019.5
2016-08-25T08:22:16.851Z,1019.48
2016-08-25T08:22:42.430Z,1019.49
2016-08-25T08:23:08.105Z,1019.49
2016-08-25T08:23:33.650Z,1019.47
2016-08-25T08:23:59.214Z,1019.47
2016-08-25T08:24:24.809Z,1019.46
2016-08-25T08:24:50.393Z,1019.46
2016-08-25T08:25:15.956Z,1019.44
2016-08-25T08:25:41.513Z,1019.46
2016-08-25T08:26:07.096Z,1019.44
2016-08-25T08:26:32.652Z,1019.47
2016-08-25T08:26:58.214Z,1019.49
2016-08-25T08:27:23.762Z,1019.47
2016-08-25T08:27:49.539Z,1019.47
2016-08-25T08:28:15.031Z,1019.46